createdAt,value
2023-04-06T00:01:09.416Z,2.43
2023-04-06T00:03:36.729Z,2.32
2023-04-06T00:06:04.324Z,2.33
2023-04-06T00:08:31.468Z,2.27
2023-04-06T00:10:58.102Z,2.27
2023-04-06T00:13:24.817Z,2.19
2023-04-06T00:15:51.582Z,2.11
2023-04-06T00:18:18.354Z,2.00
2023-04-06T00:20:45.071Z,1.90
2023-04-06T00:23:11.717Z,1.92
2023-04-06T00:25:38.421Z,1.89
2023-04-06T00:28:05.039Z,1.74
2023-04-06T00:30:31.748Z,1.74
2023-04-06T00:32:58.512Z,1.62
2023-04-06T00:35:25.359Z,1.56
2023-04-06T00:37:51.982Z,1.62
2023-04-06T00:40:18.838Z,1.57
2023-04-06T00:42:45.670Z,1.41
2023-04-06T00:45:12.288Z,1.33
2023-04-06T00:47:39.000Z,1.26
2023-04-06T00:50:06.327Z,1.27
2023-04-06T00:52:33.083Z,1.33
2023-04-06T00:54:59.845Z,1.20
2023-04-06T00:57:26.476Z,1.24
2023-04-06T00:59:53.109Z,1.27
2023-04-06T01:02:19.788Z,1.07
2023-04-06T01:04:46.507Z,1.01
2023-04-06T01:07:13.106Z,0.86
2023-04-06T01:09:42.157Z,0.82
2023-04-06T01:12:08.879Z,0.75
2023-04-06T01:14:35.691Z,0.68
2023-04-06T01:17:02.392Z,0.73
2023-04-06T01:19:29.210Z,0.59
2023-04-06T01:21:56.141Z,0.51
2023-04-06T01:24:23.175Z,0.50
2023-04-06T01:26:49.870Z,0.47
2023-04-06T01:29:16.520Z,0.46
2023-04-06T01:31:43.353Z,0.26
2023-04-06T01:34:10.144Z,0.23
2023-04-06T01:36:37.002Z,0.06
2023-04-06T01:39:03.797Z,0.15
2023-04-06T01:41:30.460Z,0.00
2023-04-06T01:43:57.149Z,0.06
2023-04-06T01:46:23.903Z,-0.10
2023-04-06T01:48:50.637Z,-0.10
2023-04-06T01:51:17.435Z,-0.17
2023-04-06T01:53:44.204Z,-0.17
2023-04-06T01:56:10.874Z,-0.22
2023-04-06T01:58:37.596Z,-0.22
2023-04-06T02:01:04.411Z,-0.32
2023-04-06T02:03:31.760Z,-0.30
2023-04-06T02:05:58.468Z,-0.42
2023-04-06T02:08:25.504Z,-0.48
2023-04-06T02:10:52.325Z,-0.52
2023-04-06T02:13:19.050Z,-0.62
2023-04-06T02:15:45.851Z,-0.61
2023-04-06T02:18:12.526Z,-0.51
2023-04-06T02:20:39.189Z,-0.59
2023-04-06T02:23:05.866Z,-0.56
2023-04-06T02:25:32.712Z,-0.55
2023-04-06T02:27:59.368Z,-0.61
2023-04-06T02:30:26.602Z,-0.64
2023-04-06T02:32:53.469Z,-0.73
2023-04-06T02:35:20.195Z,-0.81
2023-04-06T02:37:46.947Z,-0.83
2023-04-06T02:40:15.064Z,-0.81
2023-04-06T02:42:41.801Z,-0.87
2023-04-06T02:45:08.802Z,-0.87
2023-04-06T02:47:35.518Z,-0.82
2023-04-06T02:50:02.635Z,-0.91
2023-04-06T02:52:29.321Z,-0.96
2023-04-06T02:54:56.451Z,-0.91
2023-04-06T02:57:23.349Z,-0.97
2023-04-06T02:59:49.965Z,-0.95
2023-04-06T03:02:18.494Z,-1.00
2023-04-06T03:04:45.573Z,-1.09
2023-04-06T03:07:12.241Z,-1.17
2023-04-06T03:09:39.668Z,-1.23
2023-04-06T03:12:08.505Z,-1.25
2023-04-06T03:14:36.492Z,-1.30
2023-04-06T03:17:03.317Z,-1.33
2023-04-06T03:19:30.097Z,-1.37
2023-04-06T03:21:56.846Z,-1.52
2023-04-06T03:24:23.522Z,-1.55
2023-04-06T03:26:50.363Z,-1.56
2023-04-06T03:29:18.452Z,-1.53
2023-04-06T03:31:45.593Z,-1.50
2023-04-06T03:34:15.528Z,-1.62
2023-04-06T03:36:42.277Z,-1.60
2023-04-06T03:39:09.292Z,-1.66
2023-04-06T03:41:36.313Z,-1.65
2023-04-06T03:44:02.957Z,-1.65
2023-04-06T03:46:29.831Z,-1.72
2023-04-06T03:48:56.711Z,-1.66
2023-04-06T03:51:23.492Z,-1.62
2023-04-06T03:53:50.311Z,-1.72
2023-04-06T03:56:16.967Z,-1.86
2023-04-06T03:58:45.554Z,-1.81
2023-04-06T04:01:12.477Z,-1.79
2023-04-06T04:03:40.966Z,-1.78
2023-04-06T04:06:08.664Z,-1.84
2023-04-06T04:08:36.454Z,-1.82
2023-04-06T04:11:03.198Z,-1.93
2023-04-06T04:13:29.784Z,-1.92
2023-04-06T04:15:56.570Z,-2.00
2023-04-06T04:18:23.261Z,-2.05
2023-04-06T04:20:50.040Z,-2.06
2023-04-06T04:23:18.188Z,-2.03
2023-04-06T04:25:48.150Z,-2.07
2023-04-06T04:28:16.188Z,-2.02
2023-04-06T04:30:42.914Z,-2.06
2023-04-06T04:33:09.654Z,-2.09
2023-04-06T04:35:36.473Z,-2.01
2023-04-06T04:38:03.294Z,-1.94
2023-04-06T04:40:30.051Z,-1.97
2023-04-06T04:42:56.661Z,-1.99
2023-04-06T04:45:23.269Z,-1.94
2023-04-06T04:47:49.993Z,-2.06
2023-04-06T04:50:16.860Z,-2.04
2023-04-06T04:52:44.732Z,-1.95
2023-04-06T04:55:11.662Z,-2.05
2023-04-06T04:57:50.094Z,-2.04
2023-04-06T05:00:23.403Z,-2.08
2023-04-06T05:02:50.441Z,-2.11
2023-04-06T05:05:17.251Z,-2.07
2023-04-06T05:07:44.044Z,-2.13
2023-04-06T05:10:11.881Z,-1.96
2023-04-06T05:12:38.846Z,-1.96
2023-04-06T05:15:05.951Z,-2.05
2023-04-06T05:17:32.712Z,-1.98
2023-04-06T05:19:59.353Z,-1.94
2023-04-06T05:22:26.399Z,-2.00
2023-04-06T05:24:54.203Z,-1.95
2023-04-06T05:27:20.940Z,-1.95
2023-04-06T05:29:47.525Z,-1.85
2023-04-06T05:32:14.752Z,-1.83
2023-04-06T05:34:50.562Z,-1.81
2023-04-06T05:37:28.082Z,-1.75
2023-04-06T05:39:55.766Z,-1.82
2023-04-06T05:42:23.720Z,-1.79
2023-04-06T05:44:50.791Z,-1.69
2023-04-06T05:47:17.427Z,-1.71
2023-04-06T05:49:44.222Z,-1.60
2023-04-06T05:52:11.436Z,-1.53
2023-04-06T05:54:38.167Z,-1.45
2023-04-06T05:57:04.869Z,-1.47
2023-04-06T05:59:32.400Z,-1.33
2023-04-06T06:02:00.244Z,-1.34
2023-04-06T06:04:28.961Z,-1.29
2023-04-06T06:06:55.996Z,-1.37
2023-04-06T06:09:22.735Z,-1.28
2023-04-06T06:11:49.969Z,-1.24
2023-04-06T06:14:17.639Z,-1.18
2023-04-06T06:16:44.410Z,-1.14
2023-04-06T06:19:11.392Z,-1.05
2023-04-06T06:21:38.125Z,-0.96
2023-04-06T06:24:09.503Z,-0.77
2023-04-06T06:26:43.045Z,-0.21
2023-04-06T06:29:11.201Z,1.62
2023-04-06T06:31:38.157Z,3.27
2023-04-06T06:34:04.936Z,4.74
2023-04-06T06:36:32.693Z,6.14
2023-04-06T06:38:59.498Z,7.00
2023-04-06T06:41:27.192Z,7.91
2023-04-06T06:43:53.932Z,8.53
2023-04-06T06:46:21.645Z,9.02
2023-04-06T06:48:48.620Z,9.27
2023-04-06T06:51:15.594Z,9.94
2023-04-06T06:53:44.959Z,10.40
2023-04-06T06:56:11.916Z,10.54
2023-04-06T06:58:38.660Z,10.69
2023-04-06T07:01:06.298Z,11.12
2023-04-06T07:03:34.247Z,11.19
2023-04-06T07:06:00.901Z,11.21
2023-04-06T07:08:27.576Z,11.19
2023-04-06T07:10:54.531Z,11.29
2023-04-06T07:13:24.761Z,11.02
2023-04-06T07:15:51.964Z,11.05
2023-04-06T07:18:20.030Z,11.25
2023-04-06T07:20:46.713Z,11.35
2023-04-06T07:23:13.446Z,11.27
2023-04-06T07:25:40.352Z,11.17
2023-04-06T07:28:07.016Z,10.54
2023-04-06T07:30:35.155Z,10.31
2023-04-06T07:33:03.812Z,10.37
2023-04-06T07:35:31.269Z,10.24
2023-04-06T07:37:58.309Z,10.18
2023-04-06T07:40:25.103Z,10.08
2023-04-06T07:42:56.220Z,10.01
2023-04-06T07:45:24.556Z,9.66
2023-04-06T07:47:51.340Z,9.51
2023-04-06T07:50:18.205Z,9.23
2023-04-06T07:52:44.833Z,9.11
2023-04-06T07:55:11.511Z,9.11
2023-04-06T07:57:38.307Z,8.93
2023-04-06T08:00:05.580Z,8.95
2023-04-06T08:02:35.619Z,8.84
2023-04-06T08:05:04.749Z,8.84
2023-04-06T08:07:31.393Z,8.59
2023-04-06T08:09:58.038Z,8.63
2023-04-06T08:12:24.767Z,8.52
2023-04-06T08:14:51.432Z,8.27
2023-04-06T08:17:18.122Z,8.06
2023-04-06T08:19:45.423Z,8.27
2023-04-06T08:22:12.701Z,8.33
2023-04-06T08:24:39.477Z,8.26
2023-04-06T08:27:06.282Z,8.12
2023-04-06T08:29:32.963Z,8.25
2023-04-06T08:31:59.641Z,8.32
2023-04-06T08:34:26.296Z,8.33
2023-04-06T08:36:53.317Z,8.26
2023-04-06T08:39:26.369Z,7.72
2023-04-06T08:41:53.728Z,8.13
2023-04-06T08:44:20.626Z,8.15
2023-04-06T08:46:47.497Z,8.21
2023-04-06T08:49:15.350Z,8.38
2023-04-06T08:51:43.057Z,8.55
2023-04-06T08:54:11.149Z,8.66
2023-04-06T08:56:41.328Z,8.72
2023-04-06T08:59:08.395Z,8.92
2023-04-06T09:01:42.117Z,9.30
2023-04-06T09:04:13.443Z,9.55
2023-04-06T09:06:41.690Z,9.66
2023-04-06T09:09:08.959Z,9.91
2023-04-06T09:11:49.117Z,9.85
2023-04-06T09:14:17.689Z,10.16
2023-04-06T09:16:46.371Z,10.45
2023-04-06T09:19:13.546Z,10.72
2023-04-06T09:21:43.549Z,10.98
2023-04-06T09:24:10.809Z,11.12
2023-04-06T09:26:48.041Z,10.84
2023-04-06T09:29:27.084Z,11.04
2023-04-06T09:31:54.142Z,11.08
2023-04-06T09:34:24.838Z,11.16
2023-04-06T09:36:53.131Z,10.77
2023-04-06T09:39:23.369Z,10.47
2023-04-06T09:41:51.879Z,10.64
2023-04-06T09:44:18.772Z,11.14
2023-04-06T09:46:59.643Z,11.34
2023-04-06T09:49:28.893Z,11.46
2023-04-06T09:52:00.597Z,11.93
2023-04-06T09:54:31.045Z,11.71
2023-04-06T09:57:18.083Z,11.36
2023-04-06T09:59:51.799Z,10.82
2023-04-06T10:02:57.982Z,10.60
2023-04-06T10:05:38.346Z,10.47
2023-04-06T10:08:08.464Z,10.45
2023-04-06T10:10:35.426Z,10.25
2023-04-06T10:13:02.821Z,10.33
2023-04-06T10:15:37.913Z,10.53
2023-04-06T10:18:04.848Z,11.03
2023-04-06T10:21:10.390Z,11.22
2023-04-06T10:23:46.010Z,11.51
2023-04-06T10:26:17.530Z,12.11
2023-04-06T10:28:48.192Z,12.11
2023-04-06T10:31:15.586Z,11.91
2023-04-06T10:33:42.741Z,11.72
2023-04-06T10:36:13.115Z,11.53
2023-04-06T10:38:41.873Z,11.36
2023-04-06T10:41:12.838Z,11.28
2023-04-06T10:43:41.988Z,11.49
2023-04-06T10:46:10.501Z,11.80
2023-04-06T10:48:40.009Z,11.92
2023-04-06T10:51:12.186Z,11.96
2023-04-06T10:53:39.144Z,12.01
2023-04-06T10:56:12.257Z,12.51
2023-04-06T10:58:39.426Z,12.42
2023-04-06T11:01:06.440Z,12.34
2023-04-06T11:03:44.329Z,12.14
2023-04-06T11:06:11.225Z,11.98
2023-04-06T11:08:40.483Z,11.61
2023-04-06T11:11:16.331Z,11.50
2023-04-06T11:13:44.719Z,11.33
2023-04-06T11:16:24.974Z,11.22
2023-04-06T11:18:59.587Z,11.00
2023-04-06T11:21:36.761Z,10.90
2023-04-06T11:24:20.209Z,10.75
2023-04-06T11:26:56.794Z,10.94
2023-04-06T11:29:29.495Z,10.65
2023-04-06T11:32:00.926Z,10.54
2023-04-06T11:34:29.628Z,10.82
2023-04-06T11:37:02.771Z,10.91
2023-04-06T11:39:30.567Z,10.85
2023-04-06T11:42:03.141Z,10.92
2023-04-06T11:44:31.039Z,11.19
2023-04-06T11:46:58.296Z,11.23
2023-04-06T11:49:32.690Z,11.70
2023-04-06T11:52:00.918Z,11.89
2023-04-06T11:54:31.803Z,11.93
2023-04-06T11:56:58.632Z,12.04
2023-04-06T11:59:25.827Z,11.75
2023-04-06T12:01:54.222Z,12.36
2023-04-06T12:04:21.812Z,12.67
2023-04-06T12:06:49.353Z,12.09
2023-04-06T12:09:17.773Z,12.58
2023-04-06T12:11:45.168Z,12.88
2023-04-06T12:14:12.514Z,12.99
2023-04-06T12:16:39.429Z,12.94
2023-04-06T12:19:06.411Z,12.94
2023-04-06T12:21:34.028Z,13.16
2023-04-06T12:24:01.711Z,13.35
2023-04-06T12:26:28.741Z,13.57
2023-04-06T12:28:55.571Z,13.97
2023-04-06T12:31:24.196Z,13.97
2023-04-06T12:33:51.358Z,14.28
2023-04-06T12:36:22.377Z,14.17
2023-04-06T12:38:49.906Z,14.50
2023-04-06T12:41:17.082Z,14.67
2023-04-06T12:43:44.199Z,13.71
2023-04-06T12:46:11.866Z,13.57
2023-04-06T12:48:39.211Z,13.86
2023-04-06T12:51:07.417Z,13.82
2023-04-06T12:53:35.196Z,13.97
2023-04-06T12:56:02.904Z,14.24
2023-04-06T12:58:30.514Z,14.53
2023-04-06T13:01:03.849Z,14.27
2023-04-06T13:03:31.748Z,14.51
2023-04-06T13:06:00.812Z,14.54
2023-04-06T13:08:28.350Z,14.26
2023-04-06T13:10:55.866Z,14.15
2023-04-06T13:13:29.166Z,13.35
2023-04-06T13:16:00.311Z,13.27
2023-04-06T13:18:27.293Z,13.49
2023-04-06T13:20:54.202Z,13.82
2023-04-06T13:23:21.284Z,13.46
2023-04-06T13:25:48.198Z,13.62
2023-04-06T13:28:15.206Z,13.82
2023-04-06T13:30:42.128Z,13.73
2023-04-06T13:33:09.123Z,13.89
2023-04-06T13:35:36.771Z,13.96
2023-04-06T13:38:03.656Z,13.40
2023-04-06T13:40:30.392Z,13.45
2023-04-06T13:42:57.040Z,13.48
2023-04-06T13:45:23.800Z,13.63
2023-04-06T13:47:50.683Z,13.74
2023-04-06T13:50:17.654Z,13.85
2023-04-06T13:52:44.401Z,13.83
2023-04-06T13:55:11.263Z,14.01
2023-04-06T13:57:38.813Z,13.78
2023-04-06T14:00:08.136Z,12.91
2023-04-06T14:02:35.077Z,12.85
2023-04-06T14:05:02.231Z,12.56
2023-04-06T14:07:29.157Z,12.69
2023-04-06T14:09:56.361Z,11.95
2023-04-06T14:12:23.135Z,11.87
2023-04-06T14:14:52.288Z,11.88
2023-04-06T14:17:19.247Z,12.09
2023-04-06T14:19:46.157Z,12.08
2023-04-06T14:22:13.086Z,12.02
2023-04-06T14:24:39.983Z,11.51
2023-04-06T14:27:06.898Z,11.45
2023-04-06T14:29:33.620Z,11.26
2023-04-06T14:32:03.165Z,11.23
2023-04-06T14:34:30.081Z,10.94
2023-04-06T14:36:56.891Z,10.76
2023-04-06T14:39:23.648Z,10.95
2023-04-06T14:41:51.092Z,10.88
2023-04-06T14:44:17.970Z,10.66
2023-04-06T14:46:44.966Z,10.58
2023-04-06T14:49:12.109Z,10.36
2023-04-06T14:51:38.886Z,10.33
2023-04-06T14:54:05.912Z,10.24
2023-04-06T14:56:33.149Z,10.38
2023-04-06T14:59:02.470Z,9.97
2023-04-06T15:01:37.509Z,10.27
2023-04-06T15:04:05.127Z,10.31
2023-04-06T15:06:31.932Z,10.30
2023-04-06T15:08:58.571Z,10.15
2023-04-06T15:11:25.399Z,10.12
2023-04-06T15:13:52.172Z,10.02
2023-04-06T15:16:18.910Z,10.00
2023-04-06T15:18:45.594Z,9.79
2023-04-06T15:21:12.332Z,9.86
2023-04-06T15:23:38.987Z,9.93
2023-04-06T15:26:05.904Z,9.98
2023-04-06T15:28:32.544Z,10.12
2023-04-06T15:30:59.666Z,9.97
2023-04-06T15:33:33.955Z,10.15
2023-04-06T15:36:08.187Z,10.15
2023-04-06T15:38:34.768Z,10.15
2023-04-06T15:41:14.306Z,10.28
2023-04-06T15:43:41.835Z,10.50
2023-04-06T15:48:36.408Z,10.48
2023-04-06T15:51:03.445Z,10.53
2023-04-06T15:53:30.224Z,10.39
2023-04-06T15:56:06.962Z,10.51
2023-04-06T15:58:34.080Z,10.42
2023-04-06T16:01:00.934Z,10.36
2023-04-06T16:03:29.660Z,10.31
2023-04-06T16:06:08.018Z,10.35
2023-04-06T16:08:36.730Z,10.29
2023-04-06T16:11:03.689Z,10.27
2023-04-06T16:13:30.352Z,10.14
2023-04-06T16:15:57.210Z,9.99
2023-04-06T16:18:23.987Z,9.79
2023-04-06T16:20:50.993Z,9.77
2023-04-06T16:23:17.807Z,9.59
2023-04-06T16:25:44.460Z,9.55
2023-04-06T16:28:11.228Z,9.44
2023-04-06T16:30:39.256Z,9.39
2023-04-06T16:33:06.289Z,9.28
2023-04-06T16:35:33.528Z,9.23
2023-04-06T16:38:03.675Z,9.20
2023-04-06T16:40:30.596Z,9.04
2023-04-06T16:42:57.316Z,8.99
2023-04-06T16:45:24.044Z,8.95
2023-04-06T16:47:50.950Z,8.72
2023-04-06T16:50:17.954Z,8.80
2023-04-06T16:52:45.202Z,8.70
2023-04-06T16:55:12.069Z,8.51
2023-04-06T16:57:38.831Z,8.51
2023-04-06T17:00:07.906Z,8.44
2023-04-06T17:02:36.423Z,8.31
2023-04-06T17:05:04.087Z,8.39
2023-04-06T17:07:35.572Z,8.37
2023-04-06T17:10:03.684Z,8.12
2023-04-06T17:12:30.576Z,8.00
2023-04-06T17:14:57.586Z,7.87
2023-04-06T17:17:24.477Z,7.77
2023-04-06T17:19:51.186Z,7.63
2023-04-06T17:22:20.880Z,7.59
2023-04-06T17:24:48.960Z,7.56
2023-04-06T17:27:16.318Z,7.55
2023-04-06T17:29:43.193Z,7.41
2023-04-06T17:32:10.734Z,7.31
2023-04-06T17:34:37.426Z,7.13
2023-04-06T17:37:04.097Z,7.09
2023-04-06T17:39:30.784Z,6.96
2023-04-06T17:41:58.070Z,6.85
2023-04-06T17:44:24.818Z,6.77
2023-04-06T17:46:51.658Z,6.50
2023-04-06T17:49:19.934Z,6.40
2023-04-06T17:51:46.972Z,6.31
2023-04-06T17:54:13.663Z,6.17
2023-04-06T17:56:40.849Z,6.14
2023-04-06T17:59:10.518Z,6.04
2023-04-06T18:01:39.472Z,5.91
2023-04-06T18:04:06.474Z,5.89
2023-04-06T18:06:33.825Z,5.79
2023-04-06T18:09:01.007Z,5.67
2023-04-06T18:11:30.997Z,5.51
2023-04-06T18:13:58.164Z,5.44
2023-04-06T18:16:25.026Z,5.33
2023-04-06T18:18:51.954Z,5.27
2023-04-06T18:21:18.705Z,5.07
2023-04-06T18:23:46.026Z,5.07
2023-04-06T18:26:17.944Z,4.91
2023-04-06T18:28:45.662Z,4.96
2023-04-06T18:31:12.435Z,4.86
2023-04-06T18:33:39.288Z,4.84
2023-04-06T18:36:06.383Z,4.71
2023-04-06T18:38:33.056Z,4.61
2023-04-06T18:40:59.800Z,4.44
2023-04-06T18:43:26.804Z,4.38
2023-04-06T18:45:53.497Z,4.37
2023-04-06T18:48:20.453Z,4.11
2023-04-06T18:51:03.072Z,3.88
2023-04-06T18:53:29.722Z,3.80
2023-04-06T18:55:57.428Z,3.75
2023-04-06T18:58:25.593Z,3.65
2023-04-06T19:00:57.459Z,3.61
2023-04-06T19:03:24.323Z,3.72
2023-04-06T19:05:51.014Z,3.65
2023-04-06T19:08:17.683Z,3.59
2023-04-06T19:10:44.344Z,3.42
2023-04-06T19:13:11.167Z,3.29
2023-04-06T19:15:41.471Z,3.18
2023-04-06T19:18:08.408Z,3.07
2023-04-06T19:20:35.320Z,3.12
2023-04-06T19:23:03.815Z,3.18
2023-04-06T19:25:30.593Z,3.00
2023-04-06T19:27:57.252Z,2.90
2023-04-06T19:30:24.286Z,2.83
2023-04-06T19:32:51.103Z,2.79
2023-04-06T19:35:18.190Z,2.73
2023-04-06T19:37:44.960Z,2.72
2023-04-06T19:40:11.757Z,2.59
2023-04-06T19:42:38.887Z,2.43
2023-04-06T19:45:06.534Z,2.49
2023-04-06T19:47:34.872Z,2.63
2023-04-06T19:50:05.600Z,2.60
2023-04-06T19:52:32.839Z,2.35
2023-04-06T19:54:59.815Z,2.25
2023-04-06T19:57:27.490Z,2.31
2023-04-06T19:59:54.604Z,2.22
2023-04-06T20:02:21.680Z,2.12
2023-04-06T20:04:48.836Z,1.97
2023-04-06T20:07:15.461Z,1.94
2023-04-06T20:09:42.095Z,1.81
2023-04-06T20:12:08.915Z,1.81
2023-04-06T20:17:03.146Z,1.67
2023-04-06T20:19:29.914Z,1.63
2023-04-06T20:21:57.789Z,1.59
2023-04-06T20:24:24.553Z,1.56
2023-04-06T20:26:51.337Z,1.53
2023-04-06T20:29:17.998Z,1.48
2023-04-06T20:31:44.680Z,1.41
2023-04-06T20:34:11.985Z,1.31
2023-04-06T20:36:40.072Z,1.27
2023-04-06T20:39:07.129Z,1.23
2023-04-06T20:41:33.762Z,1.19
2023-04-06T20:44:00.366Z,1.05
2023-04-06T20:46:27.139Z,0.91
2023-04-06T20:48:53.849Z,0.88
2023-04-06T20:51:23.209Z,0.82
2023-04-06T20:53:50.532Z,0.74
2023-04-06T20:56:17.217Z,0.67
2023-04-06T20:58:43.880Z,0.61
2023-04-06T21:01:15.049Z,0.59
2023-04-06T21:03:42.742Z,0.59
2023-04-06T21:06:10.357Z,0.57
2023-04-06T21:08:37.737Z,0.57
2023-04-06T21:11:05.059Z,0.55
2023-04-06T21:13:32.025Z,0.57
2023-04-06T21:15:58.787Z,0.54
2023-04-06T21:18:25.872Z,0.53
2023-04-06T21:20:53.613Z,0.56
2023-04-06T21:23:23.593Z,0.59
2023-04-06T21:25:52.259Z,0.47
2023-04-06T21:28:19.105Z,0.36
2023-04-06T21:30:46.226Z,0.27
2023-04-06T21:33:13.065Z,0.30
2023-04-06T21:35:40.965Z,0.33
2023-04-06T21:38:08.673Z,0.23
2023-04-06T21:40:35.767Z,0.30
2023-04-06T21:43:02.743Z,0.27
2023-04-06T21:45:29.432Z,0.23
2023-04-06T21:47:56.087Z,0.06
2023-04-06T21:50:22.812Z,0.02
2023-04-06T21:52:49.447Z,-0.12
2023-04-06T21:55:16.296Z,-0.13
2023-04-06T21:57:44.480Z,-0.22
2023-04-06T22:00:15.074Z,-0.35
2023-04-06T22:02:42.226Z,-0.24
2023-04-06T22:05:09.393Z,-0.22
2023-04-06T22:07:36.116Z,-0.12
2023-04-06T22:10:03.423Z,-0.15
2023-04-06T22:12:31.022Z,-0.16
2023-04-06T22:14:57.740Z,-0.22
2023-04-06T22:17:24.901Z,-0.15
2023-04-06T22:19:52.610Z,-0.31
2023-04-06T22:22:19.372Z,-0.38
2023-04-06T22:24:47.063Z,-0.48
2023-04-06T22:27:14.275Z,-0.41
2023-04-06T22:29:43.031Z,-0.32
2023-04-06T22:32:09.768Z,-0.50
2023-04-06T22:34:36.568Z,-0.50
2023-04-06T22:37:04.266Z,-0.74
2023-04-06T22:39:30.996Z,-0.88
2023-04-06T22:41:57.772Z,-0.63
2023-04-06T22:44:25.256Z,-0.52
2023-04-06T22:46:51.939Z,-0.61
2023-04-06T22:49:21.905Z,-0.79
2023-04-06T22:51:48.693Z,-0.68
2023-04-06T22:54:18.509Z,-0.77
2023-04-06T22:56:45.536Z,-0.80
2023-04-06T22:59:12.600Z,-0.80
2023-04-06T23:01:39.698Z,-0.83
2023-04-06T23:04:09.174Z,-1.05
2023-04-06T23:06:35.942Z,-1.10
2023-04-06T23:09:02.623Z,-1.06
2023-04-06T23:11:29.294Z,-1.17
2023-04-06T23:13:56.713Z,-1.18
2023-04-06T23:16:26.513Z,-1.19
2023-04-06T23:18:53.587Z,-1.23
2023-04-06T23:21:20.282Z,-1.30
2023-04-06T23:23:47.252Z,-1.33
2023-04-06T23:26:14.973Z,-1.37
2023-04-06T23:28:41.730Z,-1.25
2023-04-06T23:31:09.046Z,-1.27
2023-04-06T23:33:38.667Z,-1.35
2023-04-06T23:36:05.433Z,-1.37
2023-04-06T23:38:32.908Z,-1.47
2023-04-06T23:40:59.518Z,-1.45
2023-04-06T23:43:29.252Z,-1.42
2023-04-06T23:45:57.811Z,-1.49
2023-04-06T23:48:24.695Z,-1.49
2023-04-06T23:50:52.632Z,-1.52
2023-04-06T23:53:21.666Z,-1.52
2023-04-06T23:55:48.415Z,-1.45
2023-04-06T23:58:15.528Z,-1.49
